Latest Weather Observations for Groote Eylandt Airport

IDD60801

Issued at 11:31 pm CST Sunday 19 April 2015 (issued every 30 minutes, with the page automatically refreshed every 10 minutes)

About weather observations | Map of weather stations | Latest weather observations for NT | Other Formats
Station Details ID: 014518 Name: GROOTE EYLANDT AIRPORT Lat: -13.97 Lon: 136.46 Height: 13.7 m
Data from the previous 72 hours. | See also: Recent months at Groote Eylandt Airport
Date/Time
CST
Temp
°C
App
Temp
°C
Dew
Point
Rel
Hum
%
Delta-T
°C
Wind Press
QNH
hPa
Press
MSL
hPa
Rain
since 9 am
mm
Dir
 
Spd
km/h
Gust
km/h
Spd
kts
Gust
kts
19/11:30pm 27.0 31.8 24.1 84 2.0 SE 6 9 3 5 1012.8 1012.7 1.8
19/11:00pm 27.7 32.5 24.1 81 2.5 ESE 6 9 3 5 1012.8 1012.7 1.8
19/10:30pm 28.0 32.1 24.0 79 2.8 ESE 9 13 5 7 1012.9 1012.8 1.8
19/10:00pm 28.1 32.2 23.9 78 2.9 SE 9 17 5 9 1012.9 1012.8 1.8
19/09:30pm 28.1 32.4 24.3 80 2.6 ESE 9 13 5 7 1012.9 1012.8 1.8
19/09:00pm 28.1 32.3 24.1 79 2.8 SE 9 15 5 8 1012.6 1012.5 1.8
19/08:30pm 28.0 32.6 24.2 80 2.6 SE 7 15 4 8 1012.4 1012.3 1.8
19/08:00pm 27.9 32.5 24.1 80 2.6 ESE 7 11 4 6 1012.0 1011.9 1.8
19/07:30pm 27.9 32.6 23.9 79 2.8 SE 6 11 3 6 1011.6 1011.5 1.8
19/07:00pm 28.1 32.1 23.7 77 3.0 SE 9 13 5 7 1011.4 1011.3 1.8
19/06:30pm 28.6 31.7 23.5 74 3.5 SE 13 24 7 13 1011.3 1011.2 1.8
19/06:00pm 29.1 32.2 23.5 72 3.9 ESE 13 22 7 12 1010.9 1010.8 1.8
19/05:30pm 29.3 31.7 23.7 72 3.9 ESE 17 30 9 16 1010.7 1010.6 1.8
19/05:00pm 29.1 31.4 23.5 72 3.9 ESE 17 30 9 16 1010.9 1010.8 1.8
19/04:30pm 29.7 32.1 24.3 73 3.8 ESE 19 32 10 17 1010.7 1010.6 1.8
19/04:01pm 27.6 31.0 24.6 84 2.1 ESE 15 24 8 13 1010.6 1010.5 1.8
19/04:00pm 27.6 31.1 24.8 85 2.0 ESE 15 24 8 13 1010.6 1010.5 1.8
19/03:44pm 27.6 29.3 23.4 78 2.9 ESE 20 46 11 25 1010.7 1010.6 1.8
19/03:30pm 31.7 35.3 24.3 65 5.2 ESE 13 26 7 14 1010.1 1010.0 0.0
19/03:00pm 31.5 34.2 24.1 65 5.2 SE 17 30 9 16 1010.2 1010.1 0.0
19/02:30pm 31.8 34.4 23.9 63 5.5 SE 17 28 9 15 1010.5 1010.4 0.0
19/02:00pm 31.2 33.2 23.0 61 5.6 SE 17 30 9 16 1010.8 1010.7 0.0
19/01:30pm 31.6 33.3 23.4 61 5.7 SE 20 33 11 18 1011.1 1011.0 0.0
19/01:00pm 32.0 33.9 23.5 60 5.9 SSE 19 37 10 20 1011.1 1011.0 0.0
19/12:30pm 31.4 33.1 23.0 61 5.8 SE 19 32 10 17 1011.7 1011.6 0.0
19/12:00pm 31.4 32.9 23.0 61 5.8 SE 20 37 11 20 1012.5 1012.4 0.0
19/11:30am 30.8 32.7 22.7 62 5.5 SE 17 30 9 16 1012.9 1012.8 0.0
19/11:00am 30.9 32.9 23.0 62 5.4 SSE 17 30 9 16 1013.2 1013.1 0.0
19/10:30am 30.4 32.1 23.1 65 5.0 SSE 19 32 10 17 1013.3 1013.2 0.0
19/10:00am 30.0 32.0 22.9 65 4.9 SSE 17 32 9 17 1013.6 1013.5 0.0
19/09:30am 29.7 32.0 23.4 69 4.3 S 17 30 9 16 1013.4 1013.3 0.0
19/09:00am 29.7 33.1 24.6 74 3.6 S 15 26 8 14 1012.9 1012.8 0.0
19/08:30am 28.9 33.6 25.5 82 2.4 SSE 11 20 6 11 1013.1 1013.0 0.0
19/08:00am 27.8 33.1 25.2 86 1.8 ESE 7 11 4 6 1012.9 1012.8 0.0
19/07:30am 24.3 30.1 24.0 98 0.2 CALM 0 0 0 0 1012.5 1012.4 0.0
19/07:00am 22.5 27.4 22.3 99 0.1 CALM 0 0 0 0 1012.2 1012.1 0.0
19/06:30am 21.9 26.4 21.6 98 0.2 CALM 0 0 0 0 1011.6 1011.5 0.0
19/06:00am 21.8 26.2 21.3 97 0.3 CALM 0 0 0 0 1011.2 1011.1 0.0
19/05:30am 21.9 26.3 21.4 97 0.3 CALM 0 0 0 0 1011.0 1010.9 0.0
19/05:00am 21.9 26.3 21.4 97 0.3 CALM 0 0 0 0 1010.8 1010.7 0.0
19/04:30am 22.1 26.6 21.6 97 0.3 CALM 0 0 0 0 1010.7 1010.6 0.0
19/04:00am 22.2 26.8 21.7 97 0.3 CALM 0 0 0 0 1010.6 1010.5 0.0
19/03:30am 22.2 26.7 21.5 96 0.5 CALM 0 0 0 0 1010.6 1010.5 0.0
19/03:00am 22.5 27.1 21.8 96 0.5 CALM 0 0 0 0 1010.7 1010.6 0.0
19/02:30am 22.5 27.1 21.7 95 0.5 CALM 0 0 0 0 1010.7 1010.6 0.0
19/02:00am 23.3 28.4 22.6 96 0.5 CALM 0 0 0 0 1011.0 1010.9 0.0
19/01:30am 22.9 26.6 22.2 96 0.5 SE 6 9 3 5 1011.3 1011.2 0.0
19/01:00am 23.4 27.1 22.6 95 0.5 E 7 9 4 5 1011.5 1011.4 0.0
19/12:30am 24.0 28.1 23.0 94 0.7 E 6 7 3 4 1012.1 1012.0 0.0
19/12:00am 24.2 29.5 23.0 93 0.8 CALM 0 6 0 3 1012.5 1012.4 0.0
 
Date/Time
CST
Temp
°C
App
Temp
°C
Dew
Point
Rel
Hum
%
Delta-T
°C
Wind Press
QNH
hPa
Press
MSL
hPa
Rain
since 9 am
mm
Dir
 
Spd
km/h
Gust
km/h
Spd
kts
Gust
kts
18/11:30pm 24.2 29.4 22.8 92 0.9 CALM 0 0 0 0 1012.8 1012.7 0.0
18/11:00pm 24.5 29.0 22.9 91 1.1 E 4 6 2 3 1012.8 1012.7 0.0
18/10:30pm 25.1 29.5 23.5 91 1.1 E 6 7 3 4 1012.7 1012.6 0.0
18/10:00pm 25.0 30.5 23.4 91 1.1 CALM 0 0 0 0 1012.7 1012.6 0.0
18/09:30pm 25.3 30.8 23.4 89 1.3 CALM 0 0 0 0 1012.7 1012.6 0.0
18/09:00pm 25.8 31.2 23.3 86 1.7 CALM 0 0 0 0 1012.6 1012.5 0.0
18/08:30pm 26.2 31.5 23.1 83 2.1 CALM 0 0 0 0 1012.5 1012.4 0.0
18/08:00pm 27.0 32.1 23.3 80 2.5 E 2 6 1 3 1012.0 1011.9 0.0
18/07:30pm 27.8 32.4 23.2 76 3.1 E 4 6 2 3 1011.6 1011.5 0.0
18/07:00pm 28.1 32.1 22.8 73 3.6 SE 6 7 3 4 1011.4 1011.3 0.0
18/06:30pm 29.2 32.9 23.2 70 4.1 E 9 13 5 7 1011.1 1011.0 0.0
18/06:00pm 29.7 33.6 22.9 67 4.7 ESE 7 11 4 6 1010.8 1010.7 0.0
18/05:30pm 29.9 33.6 22.6 65 5.0 SE 7 15 4 8 1010.5 1010.4 0.0
18/05:00pm 31.4 33.4 23.0 61 5.8 E 17 22 9 12 1010.1 1010.0 0.0
18/04:30pm 31.8 33.4 22.2 56 6.5 E 17 22 9 12 1010.0 1009.9 0.0
18/04:00pm 32.2 35.2 22.6 57 6.6 E 11 17 6 9 1009.9 1009.8 0.0
18/03:30pm 32.3 33.2 21.5 53 7.3 ENE 19 26 10 14 1009.8 1009.7 0.0
18/03:00pm 32.8 35.2 22.9 56 6.8 E 15 22 8 12 1010.1 1010.0 0.0
18/02:30pm 33.0 33.4 21.8 51 7.6 ENE 22 30 12 16 1010.3 1010.2 0.0
18/02:00pm 33.3 34.7 21.8 51 7.8 E 17 24 9 13 1010.6 1010.5 0.0
18/01:30pm 32.7 33.9 21.5 51 7.6 ESE 17 28 9 15 1010.9 1010.8 0.0
18/01:00pm 32.7 33.3 20.2 47 8.3 ESE 17 30 9 16 1011.2 1011.1 0.0
18/12:30pm 32.5 32.5 20.1 48 8.2 ENE 20 26 11 14 1011.4 1011.3 0.0
18/12:00pm 32.4 32.3 20.0 48 8.2 E 20 35 11 19 1011.9 1011.8 0.0
18/11:30am 32.4 32.5 20.0 48 8.2 E 19 28 10 15 1012.5 1012.4 0.0
18/11:00am 31.3 33.9 22.0 57 6.3 E 11 24 6 13 1013.0 1012.9 0.0
18/10:30am 31.4 34.4 22.7 60 6.0 ENE 11 20 6 11 1013.4 1013.3 0.0
18/10:00am 30.2 32.9 22.9 65 5.0 ENE 13 17 7 9 1013.5 1013.4 0.0
18/09:30am 30.0 33.0 23.4 67 4.5 ENE 13 20 7 11 1013.6 1013.5 0.0
18/09:00am 29.0 31.8 23.7 73 3.7 E 15 20 8 11 1013.5 1013.4 0.8
18/08:30am 28.1 32.4 23.7 77 3.0 E 7 13 4 7 1013.1 1013.0 0.8
18/08:00am 25.4 31.0 23.6 90 1.2 CALM 0 0 0 0 1013.1 1013.0 0.6
18/07:30am 23.2 28.3 22.7 97 0.3 CALM 0 0 0 0 1013.0 1012.9 0.6
18/07:00am 21.4 25.7 21.2 99 0.1 CALM 0 0 0 0 1012.6 1012.5 0.6
18/06:30am 20.9 25.0 20.7 99 0.1 CALM 0 0 0 0 1012.2 1012.1 0.6
18/06:00am 21.0 25.1 20.7 98 0.2 CALM 0 0 0 0 1011.8 1011.7 0.6
18/05:30am 21.2 25.4 20.9 98 0.2 CALM 0 0 0 0 1011.4 1011.3 0.6
18/05:00am 21.3 25.5 21.0 98 0.2 CALM 0 0 0 0 1010.8 1010.7 0.6
18/04:30am 21.5 25.8 21.2 98 0.2 CALM 0 0 0 0 1010.7 1010.6 0.6
18/04:00am 21.8 26.3 21.5 98 0.2 CALM 0 7 0 4 1010.9 1010.8 0.6
18/03:30am 21.8 26.3 21.5 98 0.2 CALM 0 0 0 0 1010.9 1010.8 0.6
18/03:00am 22.0 26.5 21.5 97 0.3 CALM 0 0 0 0 1011.1 1011.0 0.6
18/02:30am 22.4 27.2 22.1 98 0.2 CALM 0 0 0 0 1011.1 1011.0 0.6
18/02:00am 22.7 27.6 22.4 98 0.2 CALM 0 0 0 0 1011.4 1011.3 0.6
18/01:30am 22.7 27.5 22.2 97 0.3 CALM 0 0 0 0 1011.6 1011.5 0.6
18/01:00am 23.0 28.0 22.5 97 0.3 CALM 0 0 0 0 1012.0 1011.9 0.6
18/12:30am 23.2 28.2 22.5 96 0.5 CALM 0 0 0 0 1012.4 1012.3 0.6
18/12:00am 23.5 28.7 22.8 96 0.5 CALM 0 0 0 0 1012.5 1012.4 0.6
 
Date/Time
CST
Temp
°C
App
Temp
°C
Dew
Point
Rel
Hum
%
Delta-T
°C
Wind Press
QNH
hPa
Press
MSL
hPa
Rain
since 9 am
mm
Dir
 
Spd
km/h
Gust
km/h
Spd
kts
Gust
kts
17/11:30pm 23.7 29.0 23.0 96 0.5 CALM 0 0 0 0 1012.6 1012.5 0.6
17/11:00pm 23.9 29.3 23.2 96 0.5 CALM 0 0 0 0 1012.7 1012.6 0.6
17/10:30pm 24.0 28.9 23.1 95 0.6 ESE 2 6 1 3 1012.8 1012.7 0.6
17/10:00pm 24.1 29.4 23.1 94 0.7 CALM 0 6 0 3 1012.7 1012.6 0.6
17/09:30pm 24.2 29.5 23.0 93 0.8 CALM 0 0 0 0 1012.6 1012.5 0.6
17/09:00pm 24.6 28.8 23.4 93 0.8 E 7 9 4 5 1012.3 1012.2 0.6
17/08:30pm 24.7 28.9 23.1 91 1.1 ESE 6 7 3 4 1012.4 1012.3 0.6
17/08:00pm 24.8 30.1 23.0 90 1.2 CALM 0 0 0 0 1012.1 1012.0 0.6
17/07:30pm 25.4 30.8 23.3 88 1.4 CALM 0 0 0 0 1011.7 1011.6 0.6
17/07:00pm 26.2 30.5 23.3 84 2.0 E 6 6 3 3 1011.4 1011.3 0.6
17/06:30pm 27.2 32.9 23.7 81 2.4 CALM 0 6 0 3 1010.9 1010.8 0.6
17/06:00pm 28.2 31.7 22.9 73 3.6 ENE 9 11 5 6 1010.6 1010.5 0.6
17/05:30pm 28.8 32.5 23.2 71 3.8 ENE 9 13 5 7 1010.3 1010.2 0.6
17/05:00pm 29.2 33.9 24.3 75 3.4 ENE 7 9 4 5 1010.2 1010.1 0.6
17/04:30pm 28.9 33.3 24.5 77 3.1 ENE 9 13 5 7 1010.1 1010.0 0.6
17/04:00pm 28.3 31.7 23.4 75 3.4 NE 11 20 6 11 1010.0 1009.9 0.6
17/03:30pm 28.4 31.1 24.2 78 2.9 ENE 17 28 9 15 1010.1 1010.0 0.6
17/03:00pm 30.0 33.1 24.2 71 4.0 ESE 15 26 8 14 1010.1 1010.0 0.0
17/02:30pm 30.6 32.5 23.8 67 4.7 E 20 30 11 16 1010.3 1010.2 0.0
17/02:00pm 29.4 31.3 23.8 72 3.9 E 20 30 11 16 1010.6 1010.5 0.0
17/01:30pm 28.9 30.5 23.8 74 3.5 ESE 22 33 12 18 1011.3 1011.2 0.0
17/01:01pm 29.1 28.8 22.6 68 4.4 E 28 48 15 26 1011.6 1011.5 0.0
17/01:00pm 29.1 28.7 22.3 66 4.6 E 28 48 15 26 1011.6 1011.5 0.0
17/12:30pm 32.2 32.7 22.0 55 6.9 E 22 32 12 17 1011.7 1011.6 0.0
17/12:00pm 31.7 32.8 22.4 58 6.3 ENE 20 28 11 15 1012.1 1012.0 0.0
17/11:30am 32.4 33.6 22.5 56 6.8 E 20 32 11 17 1012.6 1012.5 0.0
17/11:00am 31.3 31.1 22.0 57 6.3 E 26 41 14 22 1013.0 1012.9 0.0
17/10:30am 31.6 32.5 22.6 59 6.2 E 22 33 12 18 1013.4 1013.3 0.0
17/10:00am 31.0 32.7 23.1 63 5.4 E 19 32 10 17 1013.5 1013.4 0.0
17/09:30am 30.6 33.5 23.8 67 4.7 E 15 22 8 12 1013.5 1013.4 0.0
17/09:00am 29.4 34.0 23.8 72 3.9 E 6 11 3 6 1013.5 1013.4 0.2
17/08:30am 27.8 33.0 23.6 78 2.9 SE 2 6 1 3 1013.5 1013.4 0.2
17/08:00am 25.8 31.0 22.9 84 2.0 CALM 0 0 0 0 1013.3 1013.2 0.2
17/07:30am 23.9 28.9 22.5 92 0.9 CALM 0 0 0 0 1012.8 1012.7 0.2
17/07:00am 22.3 27.1 22.1 99 0.1 CALM 0 0 0 0 1012.5 1012.4 0.2
17/06:30am 21.7 26.1 21.4 98 0.2 CALM 0 0 0 0 1012.3 1012.2 0.2
17/06:00am 21.9 26.4 21.6 98 0.2 CALM 0 0 0 0 1011.9 1011.8 0.2
17/05:30am 21.7 26.1 21.4 98 0.2 CALM 0 0 0 0 1011.9 1011.8 0.2
17/05:00am 21.9 26.4 21.6 98 0.2 CALM 0 0 0 0 1011.7 1011.6 0.2
17/04:30am 22.1 26.7 21.8 98 0.2 CALM 0 0 0 0 1011.7 1011.6 0.2
17/04:00am 22.3 27.0 22.0 98 0.2 CALM 0 0 0 0 1011.8 1011.7 0.2
17/03:30am 22.3 26.9 21.8 97 0.3 CALM 0 0 0 0 1011.8 1011.7 0.2
17/03:00am 22.6 27.4 22.1 97 0.3 CALM 0 0 0 0 1012.0 1011.9 0.2
17/02:30am 22.7 27.4 22.0 96 0.5 CALM 0 0 0 0 1012.2 1012.1 0.2
17/02:00am 22.9 27.7 22.1 95 0.5 CALM 0 0 0 0 1012.4 1012.3 0.2
17/01:30am 23.2 28.1 22.4 95 0.5 CALM 0 0 0 0 1012.8 1012.7 0.2
17/01:00am 23.5 28.5 22.5 94 0.7 CALM 0 0 0 0 1013.3 1013.2 0.2
17/12:30am 23.7 28.7 22.5 93 0.8 CALM 0 0 0 0 1013.8 1013.7 0.2
17/12:00am 24.0 29.2 22.8 93 0.8 CALM 0 0 0 0 1014.1 1014.0 0.2

Other Formats:

Comma delimited format used in spreadsheet applications
http://www.bom.gov.au/fwo/IDD60801/IDD60801.94153.axf

JavaScript Object Notation format (JSON) in row-major order
http://www.bom.gov.au/fwo/IDD60801/IDD60801.94153.json